createdAt,value
2018-09-15T00:01:46.732Z,10.14
2018-09-15T00:04:15.517Z,10.10
2018-09-15T00:06:44.105Z,10.08
2018-09-15T00:09:12.727Z,10.07
2018-09-15T00:11:41.304Z,10.00
2018-09-15T00:14:09.896Z,9.91
2018-09-15T00:16:38.488Z,9.81
2018-09-15T00:19:07.115Z,9.72
2018-09-15T00:21:35.702Z,9.67
2018-09-15T00:24:04.304Z,9.61
2018-09-15T00:26:32.889Z,9.55
2018-09-15T00:29:01.520Z,9.49
2018-09-15T00:31:30.110Z,9.44
2018-09-15T00:33:58.714Z,9.42
2018-09-15T00:36:27.298Z,9.36
2018-09-15T00:38:56.327Z,9.32
2018-09-15T00:41:24.939Z,9.29
2018-09-15T00:43:53.571Z,9.25
2018-09-15T00:46:22.166Z,9.10
2018-09-15T00:48:50.733Z,9.03
2018-09-15T00:51:19.320Z,9.01
2018-09-15T00:53:47.904Z,9.03
2018-09-15T00:56:16.506Z,9.09
2018-09-15T00:58:45.136Z,9.13
2018-09-15T01:01:13.738Z,9.09
2018-09-15T01:03:42.313Z,9.06
2018-09-15T01:06:10.907Z,9.11
2018-09-15T01:08:39.498Z,9.17
2018-09-15T01:11:08.121Z,9.31
2018-09-15T01:13:36.714Z,9.42
2018-09-15T01:16:05.309Z,9.54
2018-09-15T01:18:33.890Z,9.59
2018-09-15T01:21:02.492Z,9.64
2018-09-15T01:23:31.076Z,9.68
2018-09-15T01:25:59.726Z,9.72
2018-09-15T01:28:28.297Z,9.78
2018-09-15T01:30:56.902Z,9.81
2018-09-15T01:33:25.462Z,9.84
2018-09-15T01:35:54.055Z,9.86
2018-09-15T01:38:22.621Z,9.87
2018-09-15T01:40:51.205Z,9.87
2018-09-15T01:43:19.778Z,9.88
2018-09-15T01:45:48.375Z,9.86
2018-09-15T01:48:16.943Z,9.85
2018-09-15T01:50:45.518Z,9.82
2018-09-15T01:53:14.076Z,9.80
2018-09-15T01:55:42.694Z,9.76
2018-09-15T01:58:11.294Z,9.71
2018-09-15T02:00:39.879Z,9.68
2018-09-15T02:03:08.452Z,9.64
2018-09-15T02:05:37.059Z,9.62
2018-09-15T02:08:05.627Z,9.59
2018-09-15T02:10:34.210Z,9.59
2018-09-15T02:13:02.782Z,9.55
2018-09-15T02:15:31.360Z,9.51
2018-09-15T02:17:59.929Z,9.49
2018-09-15T02:20:28.534Z,9.49
2018-09-15T02:22:57.169Z,9.49
2018-09-15T02:25:25.732Z,9.50
2018-09-15T02:27:54.297Z,9.49
2018-09-15T02:30:22.900Z,9.44
2018-09-15T02:32:51.457Z,9.41
2018-09-15T02:35:20.049Z,9.40
2018-09-15T02:37:48.611Z,9.41
2018-09-15T02:40:17.213Z,9.40
2018-09-15T02:42:45.768Z,9.40
2018-09-15T02:45:14.334Z,9.39
2018-09-15T02:47:43.431Z,9.39
2018-09-15T02:50:12.003Z,9.40
2018-09-15T02:52:40.596Z,9.42
2018-09-15T02:55:09.169Z,9.44
2018-09-15T02:57:37.763Z,9.36
2018-09-15T03:00:06.407Z,9.32
2018-09-15T03:02:34.997Z,9.29
2018-09-15T03:05:03.591Z,9.27
2018-09-15T03:07:32.173Z,9.23
2018-09-15T03:10:00.742Z,9.18
2018-09-15T03:12:29.322Z,9.15
2018-09-15T03:14:57.882Z,9.11
2018-09-15T03:17:26.460Z,9.11
2018-09-15T03:19:55.125Z,9.06
2018-09-15T03:22:23.773Z,8.96
2018-09-15T03:24:52.345Z,8.91
2018-09-15T03:27:20.943Z,8.88
2018-09-15T03:29:49.535Z,8.86
2018-09-15T03:32:18.134Z,8.81
2018-09-15T03:34:46.710Z,8.75
2018-09-15T03:37:15.300Z,8.73
2018-09-15T03:39:43.878Z,8.71
2018-09-15T03:42:12.466Z,8.67
2018-09-15T03:44:41.043Z,8.59
2018-09-15T03:47:09.641Z,8.51
2018-09-15T03:49:38.209Z,8.46
2018-09-15T03:52:06.842Z,8.48
2018-09-15T03:54:35.419Z,8.51
2018-09-15T03:57:04.016Z,8.59
2018-09-15T03:59:32.595Z,8.66
2018-09-15T04:02:01.181Z,8.73
2018-09-15T04:04:29.753Z,8.82
2018-09-15T04:06:58.348Z,8.87
2018-09-15T04:09:26.929Z,8.89
2018-09-15T04:11:55.524Z,8.96
2018-09-15T04:14:24.094Z,8.96
2018-09-15T04:16:52.688Z,8.90
2018-09-15T04:19:21.262Z,8.86
2018-09-15T04:21:49.882Z,8.79
2018-09-15T04:24:18.454Z,8.76
2018-09-15T04:26:47.053Z,8.67
2018-09-15T04:29:15.633Z,8.68
2018-09-15T04:31:44.224Z,8.68
2018-09-15T04:34:12.786Z,8.73
2018-09-15T04:36:41.415Z,8.84
2018-09-15T04:39:11.780Z,8.94
2018-09-15T04:41:40.849Z,9.02
2018-09-15T04:44:09.431Z,9.12
2018-09-15T04:46:38.033Z,9.27
2018-09-15T04:49:06.758Z,9.46
2018-09-15T04:51:35.322Z,9.62
2018-09-15T04:54:03.915Z,9.77
2018-09-15T04:56:32.476Z,9.92
2018-09-15T04:59:01.061Z,9.96
2018-09-15T05:01:29.645Z,9.96
2018-09-15T05:03:58.219Z,9.93
2018-09-15T05:06:26.911Z,9.89
2018-09-15T05:08:55.469Z,9.84
2018-09-15T05:11:24.031Z,9.83
2018-09-15T05:13:52.625Z,9.84
2018-09-15T05:16:21.186Z,9.92
2018-09-15T05:18:49.769Z,10.00
2018-09-15T05:21:18.345Z,10.06
2018-09-15T05:23:46.924Z,10.12
2018-09-15T05:26:15.506Z,10.15
2018-09-15T05:28:44.092Z,10.21
2018-09-15T05:31:12.682Z,10.26
2018-09-15T05:33:41.291Z,10.33
2018-09-15T05:36:09.864Z,10.42
2018-09-15T05:38:38.448Z,10.51
2018-09-15T05:41:07.016Z,10.60
2018-09-15T05:43:35.599Z,10.56
2018-09-15T05:46:04.160Z,10.53
2018-09-15T05:48:32.756Z,10.61
2018-09-15T05:51:01.327Z,10.85
2018-09-15T05:53:29.948Z,11.06
2018-09-15T05:55:58.557Z,11.38
2018-09-15T05:58:27.203Z,11.75
2018-09-15T06:00:55.841Z,11.87
2018-09-15T06:03:24.487Z,12.10
2018-09-15T06:05:53.124Z,12.17
2018-09-15T06:08:21.766Z,12.05
2018-09-15T06:10:50.358Z,12.04
2018-09-15T06:13:18.936Z,12.03
2018-09-15T06:15:47.519Z,12.13
2018-09-15T06:18:16.131Z,12.18
2018-09-15T06:20:44.749Z,12.23
2018-09-15T06:23:13.356Z,12.26
2018-09-15T06:25:41.922Z,12.35
2018-09-15T06:28:10.537Z,12.58
2018-09-15T06:30:39.130Z,12.98
2018-09-15T06:33:07.724Z,13.26
2018-09-15T06:35:36.358Z,13.42
2018-09-15T06:38:04.964Z,13.58
2018-09-15T06:40:33.533Z,13.64
2018-09-15T06:43:02.123Z,13.63
2018-09-15T06:45:30.785Z,13.62
2018-09-15T06:47:59.362Z,13.68
2018-09-15T06:50:27.954Z,13.64
2018-09-15T06:52:56.536Z,13.64
2018-09-15T06:55:25.132Z,13.71
2018-09-15T06:57:53.690Z,13.84
2018-09-15T07:00:22.307Z,13.97
2018-09-15T07:02:50.901Z,14.30
2018-09-15T07:05:19.603Z,14.55
2018-09-15T07:07:48.187Z,14.64
2018-09-15T07:10:16.831Z,14.68
2018-09-15T07:12:45.401Z,14.65
2018-09-15T07:15:14.007Z,14.60
2018-09-15T07:17:42.569Z,14.58
2018-09-15T07:20:11.185Z,14.58
2018-09-15T07:22:39.760Z,14.64
2018-09-15T07:25:08.360Z,14.63
2018-09-15T07:27:36.955Z,14.52
2018-09-15T07:30:05.633Z,14.47
2018-09-15T07:32:34.198Z,14.45
2018-09-15T07:35:02.778Z,14.46
2018-09-15T07:37:31.393Z,14.46
2018-09-15T07:40:00.015Z,14.56
2018-09-15T07:42:28.573Z,14.71
2018-09-15T07:44:57.153Z,14.85
2018-09-15T07:47:25.712Z,14.99
2018-09-15T07:49:54.264Z,15.13
2018-09-15T07:52:23.321Z,15.29
2018-09-15T07:54:51.914Z,15.39
2018-09-15T07:57:20.539Z,15.42
2018-09-15T07:59:49.128Z,15.41
2018-09-15T08:02:20.026Z,15.50
2018-09-15T08:04:49.120Z,15.75
2018-09-15T08:07:17.801Z,15.88
2018-09-15T08:09:47.153Z,15.99
2018-09-15T08:12:16.542Z,16.11
2018-09-15T08:14:45.118Z,16.24
2018-09-15T08:17:13.665Z,16.41
2018-09-15T08:19:42.265Z,16.56
2018-09-15T08:22:10.833Z,16.76
2018-09-15T08:24:39.426Z,16.81
2018-09-15T08:27:08.360Z,16.83
2018-09-15T08:29:36.970Z,17.10
2018-09-15T08:32:05.592Z,17.41
2018-09-15T08:34:34.164Z,17.41
2018-09-15T08:37:02.745Z,17.29
2018-09-15T08:39:31.317Z,17.41
2018-09-15T08:41:59.881Z,17.45
2018-09-15T08:44:28.461Z,17.50
2018-09-15T08:46:57.014Z,17.53
2018-09-15T08:49:25.586Z,17.72
2018-09-15T08:51:54.159Z,17.92
2018-09-15T08:54:22.748Z,18.02
2018-09-15T08:56:51.313Z,18.13
2018-09-15T08:59:19.888Z,18.27
2018-09-15T09:01:48.480Z,18.41
2018-09-15T09:04:17.056Z,18.46
2018-09-15T09:06:45.650Z,18.57
2018-09-15T09:09:14.216Z,18.24
2018-09-15T09:11:42.820Z,17.97
2018-09-15T09:14:11.387Z,17.68
2018-09-15T09:16:39.965Z,17.65
2018-09-15T09:19:08.530Z,17.79
2018-09-15T09:21:37.123Z,18.15
2018-09-15T09:24:05.682Z,18.46
2018-09-15T09:26:34.321Z,18.49
2018-09-15T09:29:02.902Z,18.62
2018-09-15T09:31:31.485Z,18.71
2018-09-15T09:34:00.125Z,18.69
2018-09-15T09:36:28.729Z,18.70
2018-09-15T09:38:57.308Z,18.49
2018-09-15T09:41:25.927Z,18.55
2018-09-15T09:43:54.492Z,18.60
2018-09-15T09:46:23.086Z,18.72
2018-09-15T09:48:51.682Z,18.94
2018-09-15T09:51:20.276Z,18.89
2018-09-15T09:53:48.860Z,19.06
2018-09-15T09:56:17.466Z,19.28
2018-09-15T09:58:46.049Z,19.48
2018-09-15T10:01:20.066Z,18.98
2018-09-15T10:03:48.649Z,18.45
2018-09-15T10:06:17.319Z,18.34
2018-09-15T10:08:45.873Z,18.75
2018-09-15T10:11:14.518Z,19.15
2018-09-15T10:13:43.088Z,19.42
2018-09-15T10:16:11.707Z,19.12
2018-09-15T10:18:40.305Z,18.93
2018-09-15T10:21:08.908Z,19.03
2018-09-15T10:23:37.563Z,19.50
2018-09-15T10:26:06.172Z,19.99
2018-09-15T10:28:34.772Z,20.30
2018-09-15T10:31:03.401Z,20.76
2018-09-15T10:33:31.988Z,20.90
2018-09-15T10:36:00.586Z,20.80
2018-09-15T10:38:29.219Z,20.28
2018-09-15T10:40:57.791Z,19.93
2018-09-15T10:43:26.381Z,19.79
2018-09-15T10:45:55.034Z,19.85
2018-09-15T10:48:23.618Z,20.15
2018-09-15T10:50:52.201Z,20.67
2018-09-15T10:53:20.772Z,19.99
2018-09-15T10:55:49.410Z,19.43
2018-09-15T10:58:18.011Z,19.41
2018-09-15T11:00:46.691Z,19.91
2018-09-15T11:03:15.235Z,20.03
2018-09-15T11:05:43.827Z,20.43
2018-09-15T11:08:12.442Z,20.48
2018-09-15T11:10:41.016Z,20.39
2018-09-15T11:13:09.662Z,20.27
2018-09-15T11:15:38.241Z,20.13
2018-09-15T11:18:06.885Z,19.90
2018-09-15T11:20:35.457Z,19.63
2018-09-15T11:23:04.068Z,19.42
2018-09-15T11:25:32.631Z,19.51
2018-09-15T11:28:01.250Z,19.54
2018-09-15T11:30:29.852Z,19.42
2018-09-15T11:32:58.488Z,19.57
2018-09-15T11:35:27.080Z,19.65
2018-09-15T11:37:55.713Z,19.84
2018-09-15T11:40:24.282Z,20.13
2018-09-15T11:42:52.988Z,20.38
2018-09-15T11:45:21.567Z,20.45
2018-09-15T11:47:50.202Z,20.42
2018-09-15T11:50:18.777Z,20.67
2018-09-15T11:52:48.127Z,20.70
2018-09-15T11:55:17.026Z,20.34
2018-09-15T11:57:45.634Z,20.44
2018-09-15T12:00:16.380Z,20.60
2018-09-15T12:02:45.014Z,20.77
2018-09-15T12:05:13.594Z,21.03
2018-09-15T12:07:42.227Z,21.47
2018-09-15T12:10:10.826Z,21.53
2018-09-15T12:12:39.432Z,21.07
2018-09-15T12:15:08.030Z,20.89
2018-09-15T12:17:36.657Z,21.04
2018-09-15T12:20:05.257Z,21.28
2018-09-15T12:22:33.836Z,21.32
2018-09-15T12:25:02.425Z,21.24
2018-09-15T12:27:31.021Z,21.25
2018-09-15T12:29:59.596Z,21.34
2018-09-15T12:32:28.194Z,21.56
2018-09-15T12:34:56.767Z,21.13
2018-09-15T12:37:25.354Z,20.82
2018-09-15T12:39:53.931Z,21.28
2018-09-15T12:42:22.514Z,21.28
2018-09-15T12:44:51.122Z,20.92
2018-09-15T12:47:19.737Z,21.00
2018-09-15T12:49:48.313Z,20.98
2018-09-15T12:52:17.801Z,20.79
2018-09-15T12:54:46.348Z,20.77
2018-09-15T12:57:14.984Z,21.02
2018-09-15T12:59:43.552Z,21.31
2018-09-15T13:02:12.163Z,21.41
2018-09-15T13:04:40.737Z,21.45
2018-09-15T13:07:09.321Z,20.90
2018-09-15T13:09:37.945Z,19.50
2018-09-15T13:12:06.601Z,18.67
2018-09-15T13:14:35.189Z,18.19
2018-09-15T13:17:03.772Z,17.71
2018-09-15T13:19:32.374Z,17.53
2018-09-15T13:22:00.949Z,17.54
2018-09-15T13:24:29.557Z,17.16
2018-09-15T13:26:58.128Z,16.87
2018-09-15T13:29:26.797Z,16.71
2018-09-15T13:31:55.406Z,16.72
2018-09-15T13:34:23.998Z,16.72
2018-09-15T13:36:52.581Z,16.72
2018-09-15T13:39:21.170Z,16.68
2018-09-15T13:41:49.752Z,16.60
2018-09-15T13:44:18.355Z,16.51
2018-09-15T13:46:46.943Z,16.38
2018-09-15T13:49:15.556Z,16.25
2018-09-15T13:51:44.125Z,16.19
2018-09-15T13:54:12.725Z,16.11
2018-09-15T13:56:41.288Z,16.02
2018-09-15T13:59:09.894Z,15.91
2018-09-15T14:01:38.457Z,15.75
2018-09-15T14:04:07.322Z,15.63
2018-09-15T14:06:35.889Z,15.55
2018-09-15T14:09:05.858Z,15.70
2018-09-15T14:11:34.425Z,15.88
2018-09-15T14:14:03.055Z,16.14
2018-09-15T14:16:31.655Z,16.24
2018-09-15T14:19:00.285Z,16.16
2018-09-15T14:21:28.883Z,16.09
2018-09-15T14:23:57.480Z,15.98
2018-09-15T14:26:26.045Z,15.89
2018-09-15T14:28:54.658Z,15.82
2018-09-15T14:31:23.226Z,15.79
2018-09-15T14:33:51.805Z,15.70
2018-09-15T14:36:20.373Z,15.56
2018-09-15T14:38:49.012Z,15.39
2018-09-15T14:41:17.593Z,15.17
2018-09-15T14:43:46.577Z,14.94
2018-09-15T14:46:15.154Z,14.78
2018-09-15T14:48:43.732Z,14.56
2018-09-15T14:51:12.326Z,14.47
2018-09-15T14:53:40.949Z,14.40
2018-09-15T14:56:10.102Z,14.35
2018-09-15T14:58:38.699Z,14.33
2018-09-15T15:01:07.314Z,14.34
2018-09-15T15:03:35.978Z,14.35
2018-09-15T15:06:04.610Z,14.33
2018-09-15T15:08:33.235Z,14.37
2018-09-15T15:11:01.796Z,14.38
2018-09-15T15:13:30.403Z,14.43
2018-09-15T15:15:58.987Z,14.45
2018-09-15T15:18:27.550Z,14.47
2018-09-15T15:20:56.146Z,14.52
2018-09-15T15:23:24.723Z,14.59
2018-09-15T15:25:53.316Z,14.64
2018-09-15T15:28:21.886Z,14.75
2018-09-15T15:30:50.478Z,14.88
2018-09-15T15:33:19.037Z,15.04
2018-09-15T15:35:47.629Z,15.14
2018-09-15T15:38:16.194Z,15.16
2018-09-15T15:40:44.858Z,15.19
2018-09-15T15:43:13.393Z,15.23
2018-09-15T15:45:41.990Z,15.23
2018-09-15T15:48:10.582Z,15.21
2018-09-15T15:50:39.178Z,15.20
2018-09-15T15:53:07.757Z,15.30
2018-09-15T15:55:36.397Z,15.36
2018-09-15T15:58:04.954Z,15.42
2018-09-15T16:00:33.561Z,15.56
2018-09-15T16:03:02.135Z,15.64
2018-09-15T16:05:30.726Z,15.71
2018-09-15T16:07:59.305Z,15.62
2018-09-15T16:10:27.908Z,15.56
2018-09-15T16:12:56.472Z,15.44
2018-09-15T16:15:25.072Z,15.42
2018-09-15T16:17:53.630Z,15.40
2018-09-15T16:20:22.222Z,15.41
2018-09-15T16:22:50.802Z,15.38
2018-09-15T16:25:19.378Z,15.33
2018-09-15T16:27:47.955Z,15.28
2018-09-15T16:30:16.556Z,15.20
2018-09-15T16:32:45.146Z,15.11
2018-09-15T16:35:13.759Z,15.03
2018-09-15T16:37:42.335Z,14.95
2018-09-15T16:40:10.933Z,14.84
2018-09-15T16:42:39.547Z,14.78
2018-09-15T16:45:08.136Z,14.73
2018-09-15T16:47:36.737Z,14.70
2018-09-15T16:50:05.384Z,14.67
2018-09-15T16:52:33.957Z,14.65
2018-09-15T16:55:02.572Z,14.63
2018-09-15T16:57:31.147Z,14.55
2018-09-15T16:59:59.742Z,14.49
2018-09-15T17:02:28.312Z,14.43
2018-09-15T17:04:56.895Z,14.36
2018-09-15T17:07:25.480Z,14.28
2018-09-15T17:09:54.106Z,14.22
2018-09-15T17:12:22.703Z,14.14
2018-09-15T17:14:51.283Z,14.06
2018-09-15T17:17:19.884Z,13.98
2018-09-15T17:19:48.499Z,13.88
2018-09-15T17:22:17.125Z,13.79
2018-09-15T17:24:45.698Z,13.70
2018-09-15T17:27:14.302Z,13.58
2018-09-15T17:29:42.871Z,13.50
2018-09-15T17:32:11.447Z,13.42
2018-09-15T17:34:40.005Z,13.36
2018-09-15T17:37:08.620Z,13.30
2018-09-15T17:39:37.219Z,13.29
2018-09-15T17:42:06.129Z,13.24
2018-09-15T17:44:34.697Z,13.21
2018-09-15T17:47:03.300Z,13.13
2018-09-15T17:49:31.841Z,13.07
2018-09-15T17:52:00.432Z,13.01
2018-09-15T17:54:28.975Z,12.98
2018-09-15T17:56:57.561Z,12.94
2018-09-15T17:59:26.127Z,12.92
2018-09-15T18:01:54.790Z,12.91
2018-09-15T18:04:23.345Z,12.89
2018-09-15T18:06:51.975Z,12.89
2018-09-15T18:09:20.563Z,12.89
2018-09-15T18:11:49.161Z,12.94
2018-09-15T18:14:17.731Z,13.00
2018-09-15T18:16:46.322Z,13.06
2018-09-15T18:19:14.885Z,13.11
2018-09-15T18:21:43.473Z,13.14
2018-09-15T18:24:12.036Z,13.19
2018-09-15T18:26:40.624Z,13.20
2018-09-15T18:29:09.222Z,13.21
2018-09-15T18:31:37.809Z,13.23
2018-09-15T18:34:06.375Z,13.26
2018-09-15T18:36:35.070Z,13.32
2018-09-15T18:39:04.036Z,13.33
2018-09-15T18:41:32.616Z,13.33
2018-09-15T18:44:01.175Z,13.33
2018-09-15T18:46:29.755Z,13.34
2018-09-15T18:48:58.319Z,13.32
2018-09-15T18:51:26.904Z,13.29
2018-09-15T18:53:55.539Z,13.21
2018-09-15T18:56:24.310Z,13.11
2018-09-15T18:58:52.865Z,12.98
2018-09-15T19:01:21.463Z,12.89
2018-09-15T19:03:50.028Z,12.78
2018-09-15T19:06:18.613Z,12.69
2018-09-15T19:08:47.171Z,12.59
2018-09-15T19:11:15.775Z,12.51
2018-09-15T19:13:44.343Z,12.45
2018-09-15T19:16:12.918Z,12.38
2018-09-15T19:18:41.509Z,12.30
2018-09-15T19:21:10.144Z,12.28
2018-09-15T19:23:38.716Z,12.27
2018-09-15T19:26:07.291Z,12.28
2018-09-15T19:28:35.878Z,12.30
2018-09-15T19:31:04.515Z,12.31
2018-09-15T19:33:33.107Z,12.30
2018-09-15T19:36:01.657Z,12.24
2018-09-15T19:38:30.276Z,12.20
2018-09-15T19:40:58.825Z,12.18
2018-09-15T19:43:27.413Z,12.12
2018-09-15T19:45:55.979Z,12.01
2018-09-15T19:48:24.561Z,11.92
2018-09-15T19:50:53.121Z,11.85
2018-09-15T19:53:21.697Z,11.81
2018-09-15T19:55:50.254Z,11.80
2018-09-15T19:58:18.849Z,11.78
2018-09-15T20:00:47.462Z,11.70
2018-09-15T20:03:16.031Z,11.58
2018-09-15T20:05:44.586Z,11.44
2018-09-15T20:08:13.156Z,11.32
2018-09-15T20:10:41.715Z,11.27
2018-09-15T20:13:10.305Z,11.23
2018-09-15T20:15:37.681Z,11.15
2018-09-15T20:18:05.083Z,11.14
2018-09-15T20:20:32.462Z,11.15
2018-09-15T20:23:01.079Z,11.11
2018-09-15T20:25:29.649Z,11.06
2018-09-15T20:27:58.230Z,10.99
2018-09-15T20:30:26.829Z,10.90
2018-09-15T20:32:55.442Z,10.81
2018-09-15T20:35:24.038Z,10.70
2018-09-15T20:37:52.621Z,10.58
2018-09-15T20:40:21.238Z,10.47
2018-09-15T20:42:49.828Z,10.37
2018-09-15T20:45:18.404Z,10.30
2018-09-15T20:47:46.978Z,10.24
2018-09-15T20:50:15.552Z,10.17
2018-09-15T20:52:44.233Z,10.08
2018-09-15T20:55:12.782Z,10.04
2018-09-15T20:57:41.381Z,10.03
2018-09-15T21:00:10.760Z,10.02
2018-09-15T21:02:39.589Z,9.99
2018-09-15T21:05:08.190Z,9.97
2018-09-15T21:07:36.784Z,9.95
2018-09-15T21:10:05.738Z,9.90
2018-09-15T21:12:34.365Z,9.90
2018-09-15T21:15:02.990Z,9.92
2018-09-15T21:17:31.572Z,9.97
2018-09-15T21:20:00.221Z,9.97
2018-09-15T21:22:28.775Z,9.94
2018-09-15T21:24:57.378Z,9.88
2018-09-15T21:27:25.943Z,9.82
2018-09-15T21:29:54.557Z,9.77
2018-09-15T21:32:23.146Z,9.70
2018-09-15T21:34:51.763Z,9.66
2018-09-15T21:37:20.345Z,9.63
2018-09-15T21:39:48.930Z,9.57
2018-09-15T21:42:17.501Z,9.53
2018-09-15T21:44:46.099Z,9.48
2018-09-15T21:47:14.669Z,9.44
2018-09-15T21:49:43.261Z,9.41
2018-09-15T21:52:11.845Z,9.32
2018-09-15T21:54:40.442Z,9.20
2018-09-15T21:57:09.015Z,9.10
2018-09-15T21:59:37.618Z,9.06
2018-09-15T22:02:06.225Z,9.07
2018-09-15T22:04:34.825Z,9.11
2018-09-15T22:07:03.449Z,9.13
2018-09-15T22:09:32.119Z,9.05
2018-09-15T22:12:00.673Z,8.95
2018-09-15T22:14:29.270Z,8.86
2018-09-15T22:16:57.962Z,8.76
2018-09-15T22:19:26.576Z,8.69
2018-09-15T22:21:55.177Z,8.63
2018-09-15T22:24:23.788Z,8.66
2018-09-15T22:26:52.378Z,8.71
2018-09-15T22:29:20.994Z,8.74
2018-09-15T22:31:49.564Z,8.72
2018-09-15T22:34:18.177Z,8.63
2018-09-15T22:36:46.748Z,8.48
2018-09-15T22:39:15.338Z,8.38
2018-09-15T22:41:43.895Z,8.30
2018-09-15T22:44:12.477Z,8.28
2018-09-15T22:46:41.040Z,8.28
2018-09-15T22:49:09.624Z,8.34
2018-09-15T22:51:38.217Z,8.44
2018-09-15T22:54:06.833Z,8.54
2018-09-15T22:56:35.409Z,8.60
2018-09-15T22:59:04.005Z,8.65
2018-09-15T23:01:32.564Z,8.62
2018-09-15T23:04:09.420Z,8.54
2018-09-15T23:06:37.982Z,8.45
2018-09-15T23:09:08.711Z,8.44
2018-09-15T23:11:37.277Z,8.44
2018-09-15T23:14:05.842Z,8.50
2018-09-15T23:16:34.435Z,8.52
2018-09-15T23:19:03.032Z,8.52
2018-09-15T23:21:31.679Z,8.55
2018-09-15T23:24:00.344Z,8.58
2018-09-15T23:26:28.951Z,8.61
2018-09-15T23:28:57.515Z,8.67
2018-09-15T23:31:26.152Z,8.70
2018-09-15T23:33:54.724Z,8.75
2018-09-15T23:36:23.324Z,8.77
2018-09-15T23:38:51.909Z,8.79
2018-09-15T23:41:20.514Z,8.80
2018-09-15T23:43:49.102Z,8.79
2018-09-15T23:46:17.744Z,8.73
2018-09-15T23:48:46.342Z,8.69
2018-09-15T23:51:14.947Z,8.66
2018-09-15T23:53:43.534Z,8.61
2018-09-15T23:56:12.114Z,8.59
2018-09-15T23:58:40.688Z,8.58
